Time;durP1;ratioP1;P1;durP2;ratioP2;P2;SDS_P1;SDS_P2;PMS_P1;PMS_P2;Temp;Humidity;BMP_temperature;BMP_pressure;BME280_temperature;BME280_humidity;BME280_pressure;Samples;Min_cycle;Max_cycle;Signal;HPM_P1;HPM_P2
2023/07/18 00:20:12;;;;;;;;;;;;;;;21.40;65.18;99092.81;6276867;22;19938;-93
2023/07/18 00:23:12;;;;;;;;;;;;;;;;;;;;;
2023/07/18 00:26:50;;;;;;;;;;;;;;;21.34;65.39;99103.47;6286470;22;19919;-94
2023/07/18 00:29:50;;;;;;;;;;;;;;;21.24;65.81;99105.00;6140915;23;19924;-94
2023/07/18 02:49:34;;;;;;;;;;;;;;;20.94;69.22;98952.41;6316943;22;19938;-94
2023/07/18 04:50:29;;;;;;;;;;;;;;;22.87;64.17;98896.66;6299376;22;19927;-91
2023/07/18 04:52:55;;;;;;;;;;;;;;;22.99;63.69;98898.25;6251349;22;20242;-90
2023/07/18 04:55:21;;;;;;;;;;;;;;;23.09;64.00;98896.59;6252937;22;19919;-87
2023/07/18 04:57:48;;;;;;;;;;;;;;;23.20;63.73;98886.16;6253478;22;19950;-89
2023/07/18 05:00:14;;;;;;;;;;;;;;;23.26;63.46;98884.53;6251211;22;19919;-89
2023/07/18 05:03:08;;;;;;;;;;;;;;;23.36;63.58;98891.22;6279078;22;20377;-90
2023/07/18 05:05:34;;;;;;;;;;;;;;;23.39;63.35;98876.47;6227418;22;19919;-89
2023/07/18 05:07:59;;;;;;;;;;;;;;;23.54;63.64;98877.13;6225737;22;19919;-89
2023/07/18 05:10:26;;;;;;;;;;;;;;;23.75;63.56;98873.41;6249749;22;19919;-91
2023/07/18 05:12:58;;;;;;;;;;;;;;;23.91;62.83;98868.06;6228205;22;19921;-89
2023/07/18 05:15:23;;;;;;;;;;;;;;;24.06;62.59;98863.91;6278062;22;20351;-94
2023/07/18 05:17:52;;;;;;;;;;;;;;;24.21;61.46;98861.00;6280107;22;20338;-91
2023/07/18 05:20:19;;;;;;;;;;;;;;;24.28;61.82;98858.09;6229698;22;19941;-93
2023/07/18 05:22:47;;;;;;;;;;;;;;;24.34;61.83;98846.06;6228347;22;19919;-92
2023/07/18 05:25:14;;;;;;;;;;;;;;;24.53;62.18;98846.66;6230381;22;20338;-91
2023/07/18 05:27:40;;;;;;;;;;;;;;;24.65;60.96;98853.69;6229781;22;19923;-92
2023/07/18 05:30:16;;;;;;;;;;;;;;;24.68;61.12;98841.69;6229915;22;19919;-93
2023/07/18 05:32:54;;;;;;;;;;;;;;;24.80;60.86;98844.69;6255599;22;19919;-92
2023/07/18 05:35:51;;;;;;;;;;;;;;;24.85;62.40;98835.81;6228418;22;19923;-94
2023/07/18 05:38:43;;;;;;;;;;;;;;;24.85;60.44;98838.63;6253389;22;19925;-94
2023/07/18 05:41:29;;;;;;;;;;;;;;;24.80;61.01;98844.69;6257052;22;19919;-92
2023/07/18 05:43:54;;;;;;;;;;;;;;;24.73;61.67;98841.19;6231474;22;19919;-90
2023/07/18 05:46:23;;;;;;;;;;;;;;;24.69;61.74;98841.25;6261740;22;19923;-95
2023/07/18 05:48:51;;;;;;;;;;;;;;;24.72;61.56;98834.81;6298396;22;19931;-92
2023/07/18 05:51:18;;;;;;;;;;;;;;;24.69;61.29;98830.06;6235668;22;19923;-93
2023/07/18 05:53:44;;;;;;;;;;;;;;;24.72;62.25;98832.03;6232821;22;19941;-92
2023/07/18 05:56:10;;;;;;;;;;;;;;;24.80;62.16;98832.69;6257417;22;20333;-92
2023/07/18 05:58:36;;;;;;;;;;;;;;;24.82;61.57;98819.09;6232880;22;19919;-91
2023/07/18 06:01:02;;;;;;;;;;;;;;;24.85;62.42;98809.88;6257113;22;20345;-94
2023/07/18 06:03:28;;;;;;;;;;;;;;;24.80;62.24;98805.56;6234212;22;19923;-90
2023/07/18 06:05:56;;;;;;;;;;;;;;;24.76;62.02;98798.44;6229429;22;19919;-92
2023/07/18 06:08:22;;;;;;;;;;;;;;;24.69;62.94;98799.31;6223990;22;19927;-91
2023/07/18 06:10:47;;;;;;;;;;;;;;;24.71;63.75;98787.72;6251447;22;19950;-90
2023/07/18 06:13:13;;;;;;;;;;;;;;;24.81;63.13;98792.38;6253493;22;20402;-92
2023/07/18 06:15:39;;;;;;;;;;;;;;;24.91;62.83;98787.84;6229185;22;19963;-92
2023/07/18 06:18:05;;;;;;;;;;;;;;;25.00;62.13;98786.09;6227653;22;19919;-92
2023/07/18 06:20:32;;;;;;;;;;;;;;;25.08;62.20;98781.97;6279914;22;20375;-94
2023/07/18 06:23:00;;;;;;;;;;;;;;;25.16;60.77;98771.47;6227347;22;19919;-91
2023/07/18 06:25:26;;;;;;;;;;;;;;;25.28;61.61;98770.06;6223925;22;19954;-93
2023/07/18 06:27:52;;;;;;;;;;;;;;;25.40;61.13;98775.06;6211575;23;19924;-94
2023/07/18 06:30:18;;;;;;;;;;;;;;;25.50;60.89;98767.72;6202130;23;19919;-90
2023/07/18 06:33:10;;;;;;;;;;;;;;;25.56;60.56;98763.19;6201544;23;19919;-92
2023/07/18 06:35:38;;;;;;;;;;;;;;;25.67;60.56;98763.78;6253137;23;19927;-93
2023/07/18 06:38:09;;;;;;;;;;;;;;;25.76;60.38;98757.59;6180651;23;19924;-91
2023/07/18 06:41:03;;;;;;;;;;;;;;;25.82;60.34;98757.94;6201103;23;19923;-94
2023/07/18 06:44:16;;;;;;;;;;;;;;;25.95;59.95;98758.88;6224030;23;19927;-92
2023/07/18 06:50:38;;;;;;;;;;;;;;;26.30;57.73;98756.56;6252438;23;20361;-92
2023/07/18 06:53:04;;;;;;;;;;;;;;;26.35;55.24;98758.84;6220307;23;19959;-89
2023/07/18 06:55:31;;;;;;;;;;;;;;;26.44;56.21;98762.66;6173591;22;19927;-91
2023/07/18 06:57:57;;;;;;;;;;;;;;;26.48;55.96;98763.38;6229310;23;19930;-89
2023/07/18 07:00:23;;;;;;;;;;;;;;;26.61;56.44;98763.50;6245224;22;19923;-89
2023/07/18 07:02:50;;;;;;;;;;;;;;;26.65;55.59;98750.19;6184621;22;20014;-91
2023/07/18 07:08:19;;;;;;;;;;;;;;;26.79;55.86;98754.69;6252247;22;19951;-94
2023/07/18 07:11:34;;;;;;;;;;;;;;;26.83;54.50;98751.81;6234349;22;19919;-92
2023/07/18 07:14:40;;;;;;;;;;;;;;;26.84;55.06;98739.34;6256703;22;19906;-92
2023/07/18 07:57:40;;;;;;;;;;;;;;;26.35;56.81;98695.19;6106671;23;20005;-94
2023/07/18 08:09:21;;;;;;;;;;;;;;;27.10;55.31;98673.00;6268973;22;19941;-94
2023/07/18 08:11:59;;;;;;;;;;;;;;;27.19;55.15;98667.56;6299474;22;19967;-94
2023/07/18 08:14:51;;;;;;;;;;;;;;;27.30;55.90;98661.66;6268172;22;19945;-96
2023/07/18 08:17:51;;;;;;;;;;;;;;;27.41;55.16;98656.53;6243352;22;19923;-94
2023/07/18 08:21:04;;;;;;;;;;;;;;;27.43;53.59;98642.06;6209547;23;20003;-90
2023/07/18 08:26:22;;;;;;;;;;;;;;;27.63;54.74;98635.06;6281448;22;19922;-93
2023/07/18 08:29:55;;;;;;;;;;;;;;;27.77;53.81;98642.31;6241644;22;19928;-96
2023/07/18 08:54:41;;;;;;;;;;;;;;;28.15;51.49;98610.69;6288652;22;19976;-94
2023/07/18 09:02:48;;;;;;;;;;;;;;;28.22;50.08;98598.41;6289550;22;19923;-92
2023/07/18 09:12:44;;;;;;;;;;;;;;;28.38;51.69;98589.06;6182279;22;19919;-94
2023/07/18 09:21:57;;;;;;;;;;;;;;;28.91;49.53;98580.91;6298051;22;19927;-93
2023/07/18 09:24:50;;;;;;;;;;;;;;;28.79;48.72;98580.47;6236485;22;19919;-89
2023/07/18 09:27:17;;;;;;;;;;;;;;;28.75;48.25;98571.38;6203447;23;19928;-92
2023/07/18 09:29:48;;;;;;;;;;;;;;;28.86;49.10;98564.59;6202316;23;19939;-91
2023/07/18 09:35:58;;;;;;;;;;;;;;;28.96;48.47;98564.19;6209937;22;19946;-90
2023/07/18 09:41:42;;;;;;;;;;;;;;;;;;;;;
2023/07/18 09:44:59;;;;;;;;;;;;;;;29.06;47.73;98548.22;6284807;22;19919;-91
2023/07/18 09:48:07;;;;;;;;;;;;;;;28.96;47.39;98538.09;6234352;22;19973;-92
2023/07/18 09:50:37;;;;;;;;;;;;;;;28.99;47.89;98535.16;6115410;23;19916;-90
2023/07/18 09:53:35;;;;;;;;;;;;;;;;;;;;;
2023/07/18 09:56:20;;;;;;;;;;;;;;;29.06;48.43;98533.34;6204106;23;19950;-90
2023/07/18 09:58:48;;;;;;;;;;;;;;;29.09;47.75;98521.97;6204762;23;19978;-91
2023/07/18 10:01:19;;;;;;;;;;;;;;;29.18;49.10;98524.06;6222385;23;19927;-90
2023/07/18 10:03:52;;;;;;;;;;;;;;;29.19;47.74;98512.34;6258570;22;19966;-91
2023/07/18 10:07:53;;;;;;;;;;;;;;;29.36;48.73;98509.31;6170643;23;19936;-93
2023/07/18 10:10:49;;;;;;;;;;;;;;;29.49;48.36;98507.19;6169900;23;19948;-92
2023/07/18 10:13:24;;;;;;;;;;;;;;;29.61;47.94;98499.94;6214691;22;19945;-89
2023/07/18 10:16:27;;;;;;;;;;;;;;;29.68;48.52;98494.81;6267323;22;19944;-91
2023/07/18 10:19:13;;;;;;;;;;;;;;;29.69;48.51;98484.31;6263481;22;19915;-94
2023/07/18 10:24:51;;;;;;;;;;;;;;;29.41;49.47;98477.75;6285167;22;19931;-91
2023/07/18 10:30:17;;;;;;;;;;;;;;;28.91;49.71;98460.69;6315780;22;19945;-93
2023/07/18 10:33:08;;;;;;;;;;;;;;;28.66;50.09;98458.78;6236309;22;19926;-92
2023/07/18 10:36:09;;;;;;;;;;;;;;;28.44;50.77;98452.34;6233383;22;19919;-91
2023/07/18 10:38:38;;;;;;;;;;;;;;;28.27;51.84;98441.22;6277779;22;20421;-91
2023/07/18 10:41:11;;;;;;;;;;;;;;;28.07;51.78;98440.72;6229435;22;20371;-89
2023/07/18 10:43:55;;;;;;;;;;;;;;;27.94;51.79;98443.56;6285674;22;19920;-91
2023/07/18 10:46:36;;;;;;;;;;;;;;;27.84;52.79;98442.66;6281867;22;20288;-91
2023/07/18 10:49:37;;;;;;;;;;;;;;;27.68;53.98;98439.97;6280865;22;19919;-91
2023/07/18 10:52:24;;;;;;;;;;;;;;;27.29;56.56;98463.66;6227441;22;19923;-88
2023/07/18 10:54:57;;;;;;;;;;;;;;;26.37;58.71;98473.38;6102112;23;19921;-86
2023/07/18 10:57:58;;;;;;;;;;;;;;;25.70;60.74;98465.41;6149752;23;19920;-89
2023/07/18 11:00:33;;;;;;;;;;;;;;;25.16;62.08;98449.81;6077178;23;19920;-93
2023/07/18 11:03:02;;;;;;;;;;;;;;;25.02;64.49;98430.53;6142644;23;19924;-93
2023/07/18 11:06:14;;;;;;;;;;;;;;;24.75;65.18;98427.91;6209238;23;19930;-94
2023/07/18 11:09:05;;;;;;;;;;;;;;;24.64;65.18;98438.50;6197231;23;19927;-90
2023/07/18 11:11:37;;;;;;;;;;;;;;;24.56;66.56;98430.25;6247717;23;19954;-89
2023/07/18 11:14:18;;;;;;;;;;;;;;;24.53;65.46;98417.13;6247090;23;19978;-88
2023/07/18 11:16:44;;;;;;;;;;;;;;;24.55;62.16;98402.75;6219066;23;19966;-88
2023/07/18 11:19:11;;;;;;;;;;;;;;;24.52;66.66;98393.22;6195159;23;20301;-88
2023/07/18 11:21:38;;;;;;;;;;;;;;;24.48;68.89;98383.34;6247477;23;19920;-90
2023/07/18 11:24:04;;;;;;;;;;;;;;;24.56;70.60;98393.13;6195339;23;20010;-91
2023/07/18 11:26:31;;;;;;;;;;;;;;;24.56;69.07;98396.72;6170405;23;19950;-86
2023/07/18 11:28:57;;;;;;;;;;;;;;;24.54;66.89;98401.97;6171020;23;20288;-92
2023/07/18 11:31:29;;;;;;;;;;;;;;;24.47;68.09;98396.50;6221243;23;19923;-89
2023/07/18 11:34:12;;;;;;;;;;;;;;;24.46;70.32;98394.91;6220686;23;19920;-89
2023/07/18 11:37:15;;;;;;;;;;;;;;;24.41;67.82;98397.44;6194403;23;19989;-88
2023/07/18 11:39:46;;;;;;;;;;;;;;;24.33;66.82;98396.75;6247710;23;19919;-86
2023/07/18 11:42:30;;;;;;;;;;;;;;;24.28;65.85;98394.47;6192774;23;20345;-88
2023/07/18 11:44:59;;;;;;;;;;;;;;;24.29;64.69;98382.84;6219021;23;19920;-89
2023/07/18 11:47:32;;;;;;;;;;;;;;;24.31;67.15;98386.00;6244519;23;19919;-92
2023/07/18 11:50:23;;;;;;;;;;;;;;;24.24;67.16;98371.38;6221957;23;19919;-90
2023/07/18 11:52:50;;;;;;;;;;;;;;;24.20;67.15;98374.25;6198527;23;19942;-93
2023/07/18 11:55:21;;;;;;;;;;;;;;;24.19;67.34;98374.69;6190067;23;20330;-92
2023/07/18 11:57:57;;;;;;;;;;;;;;;24.14;65.95;98368.38;6136550;23;20342;-92
2023/07/18 12:00:27;;;;;;;;;;;;;;;24.15;66.67;98366.38;6137120;23;19920;-93
2023/07/18 12:03:18;;;;;;;;;;;;;;;24.18;65.24;98373.13;6145589;23;19925;-92
2023/07/18 12:05:49;;;;;;;;;;;;;;;24.21;61.33;98369.47;6101491;23;20452;-94
2023/07/18 12:08:16;;;;;;;;;;;;;;;24.15;64.15;98372.75;6079540;23;19920;-90
2023/07/18 12:10:43;;;;;;;;;;;;;;;24.07;64.63;98376.88;6127617;23;19975;-88
2023/07/18 12:13:12;;;;;;;;;;;;;;;24.05;65.54;98387.69;6127899;23;19927;-92
2023/07/18 12:15:41;;;;;;;;;;;;;;;24.02;67.01;98382.94;6154147;23;20003;-90
2023/07/18 12:18:07;;;;;;;;;;;;;;;23.97;69.92;98377.84;6156017;23;20440;-92
2023/07/18 12:20:33;;;;;;;;;;;;;;;23.91;67.49;98368.41;6131206;23;19956;-87
2023/07/18 12:23:01;;;;;;;;;;;;;;;23.90;68.85;98361.22;6130076;23;19981;-90
2023/07/18 12:25:31;;;;;;;;;;;;;;;23.81;68.61;98355.44;6130244;23;19944;-93
2023/07/18 12:28:03;;;;;;;;;;;;;;;23.81;69.51;98361.00;6156457;23;19920;-89
2023/07/18 12:30:34;;;;;;;;;;;;;;;23.75;71.06;98351.56;6155278;23;19923;-89
2023/07/18 12:33:00;;;;;;;;;;;;;;;23.75;70.95;98343.19;6149503;23;19920;-91
2023/07/18 12:35:28;;;;;;;;;;;;;;;23.62;72.06;98380.03;6156383;23;20343;-92
2023/07/18 12:37:57;;;;;;;;;;;;;;;23.31;71.51;98412.78;6133902;23;19975;-90
2023/07/18 12:40:31;;;;;;;;;;;;;;;22.94;70.60;98394.16;6190775;23;19955;-92
2023/07/18 12:43:00;;;;;;;;;;;;;;;22.57;68.93;98411.72;6193483;23;19973;-90
2023/07/18 12:45:26;;;;;;;;;;;;;;;22.42;70.92;98413.91;6196602;23;19920;-89
2023/07/18 12:48:14;;;;;;;;;;;;;;;22.06;71.25;98403.09;6185956;22;19970;-94
2023/07/18 12:54:37;;;;;;;;;;;;;;;21.55;72.03;98382.47;6260102;22;19919;-93
2023/07/18 12:57:05;;;;;;;;;;;;;;;21.34;72.57;98370.31;6223434;22;19973;-93
2023/07/18 12:59:40;;;;;;;;;;;;;;;21.26;74.05;98363.19;6223842;23;19931;-95
2023/07/18 13:02:46;;;;;;;;;;;;;;;21.07;74.86;98367.28;6230764;23;20364;-95
2023/07/18 13:05:37;;;;;;;;;;;;;;;21.05;75.80;98346.66;6193570;23;19982;-90
2023/07/18 13:08:06;;;;;;;;;;;;;;;20.97;75.52;98345.13;6224907;23;19920;-92
2023/07/18 13:10:57;;;;;;;;;;;;;;;21.01;76.23;98352.22;6223704;22;19923;-96
2023/07/18 13:13:49;;;;;;;;;;;;;;;21.00;75.88;98336.78;6258077;22;19927;-96
2023/07/18 13:16:23;;;;;;;;;;;;;;;21.07;75.45;98308.16;6234827;22;19923;-94
2023/07/18 13:56:23;;;;;;;;;;;;;;;23.26;73.46;98267.47;6125964;23;20050;-91
2023/07/18 14:01:55;;;;;;;;;;;;;;;23.27;70.57;98249.53;6215655;23;19927;-91
2023/07/18 14:07:01;;;;;;;;;;;;;;;23.38;75.41;98238.97;6199408;23;19927;-93
2023/07/18 14:10:12;;;;;;;;;;;;;;;23.35;75.78;98243.41;6199761;23;19963;-93
2023/07/18 14:20:57;;;;;;;;;;;;;;;23.31;76.34;98225.13;6074565;23;19928;-94
2023/07/18 14:34:25;;;;;;;;;;;;;;;23.20;76.80;98231.69;6223158;22;20440;-90
2023/07/18 14:37:17;;;;;;;;;;;;;;;23.20;78.52;98223.34;6194216;23;19920;-90
2023/07/18 14:39:43;;;;;;;;;;;;;;;23.19;78.69;98226.56;6194671;23;20014;-93
2023/07/18 14:42:21;;;;;;;;;;;;;;;23.16;78.21;98217.03;6196374;23;19920;-90
2023/07/18 14:44:48;;;;;;;;;;;;;;;23.13;78.93;98217.09;6197793;23;19981;-90
2023/07/18 14:47:20;;;;;;;;;;;;;;;23.14;79.44;98207.50;6195837;23;20350;-90
2023/07/18 14:53:14;;;;;;;;;;;;;;;23.10;79.83;98196.44;6206350;23;19947;-93
2023/07/18 14:55:42;;;;;;;;;;;;;;;23.05;79.67;98202.50;6260499;23;19904;-90
2023/07/18 15:04:27;;;;;;;;;;;;;;;23.02;79.68;98197.78;6217320;22;19918;-91
2023/07/18 15:06:58;;;;;;;;;;;;;;;23.03;79.79;98181.84;6270840;22;19938;-91
2023/07/18 15:09:24;;;;;;;;;;;;;;;23.03;79.82;98185.41;6261679;22;19929;-90
2023/07/18 15:12:12;;;;;;;;;;;;;;;23.00;80.12;98186.25;6287000;22;19919;-92
2023/07/18 15:14:38;;;;;;;;;;;;;;;22.99;77.97;98179.09;6145081;23;19920;-88
2023/07/18 15:17:05;;;;;;;;;;;;;;;22.96;77.40;98177.94;6194607;23;20373;-89
2023/07/18 15:19:49;;;;;;;;;;;;;;;22.93;77.17;98178.78;6297759;22;19923;-93
2023/07/18 15:22:37;;;;;;;;;;;;;;;22.82;77.08;98174.59;6114201;23;19921;-89
2023/07/18 15:25:12;;;;;;;;;;;;;;;22.80;77.06;98166.66;6111098;23;19931;-90
2023/07/18 15:28:18;;;;;;;;;;;;;;;22.78;77.68;98168.28;6131664;23;19959;-90
2023/07/18 15:31:21;;;;;;;;;;;;;;;22.82;77.99;98164.22;6127963;23;19924;-91
2023/07/18 15:33:48;;;;;;;;;;;;;;;22.79;78.91;98169.88;6053677;23;19928;-93
2023/07/18 15:36:15;;;;;;;;;;;;;;;22.70;77.38;98162.03;6102921;23;19960;-93
2023/07/18 15:39:06;;;;;;;;;;;;;;;22.65;77.35;98154.16;6077994;23;20694;-92
2023/07/18 15:41:33;;;;;;;;;;;;;;;22.58;78.64;98152.25;6125363;23;19920;-91
2023/07/18 15:44:14;;;;;;;;;;;;;;;22.52;77.95;98159.53;6125135;23;19949;-90
2023/07/18 15:46:41;;;;;;;;;;;;;;;22.49;78.32;98154.81;6198954;23;19930;-94
2023/07/18 15:49:07;;;;;;;;;;;;;;;22.34;77.64;98148.66;6172371;23;19920;-94
2023/07/18 15:51:40;;;;;;;;;;;;;;;22.33;77.93;98149.09;6223201;23;20014;-91
2023/07/18 15:54:08;;;;;;;;;;;;;;;22.26;77.64;98147.19;6199738;23;19923;-92
2023/07/18 15:56:34;;;;;;;;;;;;;;;22.28;78.43;98139.19;6173402;23;20377;-94
2023/07/18 15:59:31;;;;;;;;;;;;;;;22.32;79.00;98150.28;6195972;23;19927;-88
2023/07/18 16:01:57;;;;;;;;;;;;;;;22.20;77.18;98146.88;6223085;23;19919;-94
2023/07/18 16:04:23;;;;;;;;;;;;;;;22.16;77.57;98146.16;6252036;23;19926;-89
2023/07/18 16:06:52;;;;;;;;;;;;;;;22.11;77.28;98148.56;6176180;23;19923;-89
2023/07/18 16:09:17;;;;;;;;;;;;;;;22.11;77.41;98148.56;6198986;23;20407;-94
2023/07/18 16:11:57;;;;;;;;;;;;;;;22.06;78.39;98149.84;6224756;23;19920;-89
2023/07/18 16:14:27;;;;;;;;;;;;;;;21.96;79.32;98150.78;6248705;23;20244;-91
2023/07/18 16:16:54;;;;;;;;;;;;;;;21.85;80.46;98153.66;6250366;23;19919;-91
2023/07/18 16:19:38;;;;;;;;;;;;;;;21.70;81.24;98144.72;6171696;23;19927;-90
2023/07/18 16:22:30;;;;;;;;;;;;;;;21.73;82.03;98141.13;6221206;23;19924;-89
2023/07/18 16:25:30;;;;;;;;;;;;;;;21.64;82.21;98138.03;6163298;23;19920;-93
2023/07/18 16:28:19;;;;;;;;;;;;;;;21.57;82.47;98132.56;6214177;22;19923;-93
2023/07/18 16:31:10;;;;;;;;;;;;;;;21.59;84.06;98130.19;6200044;22;20002;-90
2023/07/18 16:33:39;;;;;;;;;;;;;;;21.56;83.77;98131.78;6223575;22;19917;-89
2023/07/18 16:36:11;;;;;;;;;;;;;;;21.57;84.36;98129.78;6247185;22;19926;-91
2023/07/18 16:39:21;;;;;;;;;;;;;;;21.58;84.78;98123.03;6199200;22;19919;-90
2023/07/18 16:41:48;;;;;;;;;;;;;;;21.58;85.12;98123.03;6202165;22;20210;-90
2023/07/18 16:44:15;;;;;;;;;;;;;;;21.59;85.47;98124.63;6253852;22;19930;-90
2023/07/18 16:46:42;;;;;;;;;;;;;;;21.62;85.47;98117.41;6279180;22;20000;-88
2023/07/18 16:49:08;;;;;;;;;;;;;;;21.60;85.67;98119.84;6252812;22;19926;-87
2023/07/18 16:51:34;;;;;;;;;;;;;;;21.58;85.40;98103.56;6277557;22;20351;-88
2023/07/18 16:54:27;;;;;;;;;;;;;;;21.66;85.44;98093.16;6284918;22;19926;-89
2023/07/18 16:56:55;;;;;;;;;;;;;;;21.67;85.23;98094.72;6280688;22;19919;-86
2023/07/18 16:59:23;;;;;;;;;;;;;;;21.68;85.26;98088.72;6306541;22;19919;-86
2023/07/18 17:01:51;;;;;;;;;;;;;;;21.63;84.04;98088.41;6224049;22;19933;-88
2023/07/18 17:04:19;;;;;;;;;;;;;;;21.60;84.70;98087.25;6254636;22;19923;-90
2023/07/18 17:07:01;;;;;;;;;;;;;;;21.54;84.46;98080.56;6230582;22;20707;-93
2023/07/18 17:09:30;;;;;;;;;;;;;;;21.52;85.34;98077.41;6220756;23;19919;-89
2023/07/18 17:12:28;;;;;;;;;;;;;;;21.44;84.32;98078.72;6220630;23;20262;-94
2023/07/18 17:15:06;;;;;;;;;;;;;;;21.25;83.96;98055.06;6118208;23;19927;-89
2023/07/18 17:17:32;;;;;;;;;;;;;;;21.32;85.08;98080.81;6217190;23;19920;-89
2023/07/18 17:19:59;;;;;;;;;;;;;;;21.27;84.23;98078.47;6216687;23;19923;-90
2023/07/18 17:22:27;;;;;;;;;;;;;;;21.18;83.08;98071.84;6216795;23;19949;-89
2023/07/18 17:24:56;;;;;;;;;;;;;;;21.13;82.34;98055.63;6226720;23;19939;-92
2023/07/18 17:31:49;;;;;;;;;;;;;;;21.01;84.39;98043.06;6130186;23;20402;-88
2023/07/18 17:34:16;;;;;;;;;;;;;;;21.02;84.71;98037.06;6152612;23;19920;-93
2023/07/18 17:39:54;;;;;;;;;;;;;;;20.96;84.26;98024.84;6218139;23;20035;-90
2023/07/18 17:42:25;;;;;;;;;;;;;;;20.99;84.87;98014.88;6258451;22;19923;-91
2023/07/18 17:44:51;;;;;;;;;;;;;;;21.00;84.63;98008.16;6226526;22;19923;-92
2023/07/18 17:47:26;;;;;;;;;;;;;;;20.94;84.71;98001.47;6228591;22;19919;-92
2023/07/18 17:49:54;;;;;;;;;;;;;;;20.94;85.32;97993.13;6225181;22;19955;-91
2023/07/18 17:52:20;;;;;;;;;;;;;;;20.94;85.67;97990.34;6223948;22;19926;-91
2023/07/18 17:57:52;;;;;;;;;;;;;;;20.83;85.48;97976.59;6274022;22;19919;-88
2023/07/18 18:00:29;;;;;;;;;;;;;;;;;;;;;
2023/07/18 18:03:34;;;;;;;;;;;;;;;20.80;85.76;97966.31;6274414;22;19919;-88
2023/07/18 18:06:15;;;;;;;;;;;;;;;20.79;85.31;97962.72;6225088;22;19923;-92
2023/07/18 18:08:41;;;;;;;;;;;;;;;20.76;85.42;97958.03;6223077;22;19911;-88
2023/07/18 18:11:41;;;;;;;;;;;;;;;20.69;85.74;97954.53;6255879;23;19924;-92
2023/07/18 18:14:34;;;;;;;;;;;;;;;20.62;86.37;97947.84;6243837;22;19923;-94
2023/07/18 18:17:42;;;;;;;;;;;;;;;20.62;86.35;97952.63;6288716;22;19941;-94
2023/07/18 18:20:08;;;;;;;;;;;;;;;20.67;86.72;97943.06;6281533;22;19919;-91
2023/07/18 18:22:37;;;;;;;;;;;;;;;20.66;86.83;97942.25;6304144;22;19949;-94
2023/07/18 18:25:41;;;;;;;;;;;;;;;;;;;;;
2023/07/18 18:28:08;;;;;;;;;;;;;;;20.70;86.54;97934.69;6251644;22;19919;-86
2023/07/18 18:30:46;;;;;;;;;;;;;;;20.69;87.10;97929.53;6283098;22;19929;-94
2023/07/18 18:33:12;;;;;;;;;;;;;;;20.69;87.27;97923.97;6263447;22;19915;-85
2023/07/18 18:35:54;;;;;;;;;;;;;;;20.71;86.94;97916.81;6257458;22;19919;-87
2023/07/18 18:38:53;;;;;;;;;;;;;;;20.73;86.73;97914.41;6260942;22;19899;-88
2023/07/18 18:41:19;;;;;;;;;;;;;;;20.62;87.37;97908.97;6211081;22;19926;-85
2023/07/18 18:47:42;;;;;;;;;;;;;;;20.52;88.03;97900.78;6291286;22;19919;-93
2023/07/18 18:50:20;;;;;;;;;;;;;;;20.58;88.30;97897.13;6292279;22;19933;-96
2023/07/18 18:56:30;;;;;;;;;;;;;;;20.71;88.15;97879.94;6266440;22;19919;-88
2023/07/18 18:58:56;;;;;;;;;;;;;;;20.61;87.71;97885.19;6285920;22;20009;-96
2023/07/18 19:01:31;;;;;;;;;;;;;;;20.57;88.15;97878.91;6285931;22;19919;-91
2023/07/18 19:04:02;;;;;;;;;;;;;;;20.55;88.32;97874.97;6252803;22;19919;-90
2023/07/18 19:06:29;;;;;;;;;;;;;;;20.56;88.37;97870.97;6253421;22;19965;-86
2023/07/18 19:08:55;;;;;;;;;;;;;;;20.53;87.79;97866.25;6251407;22;19923;-93
2023/07/18 19:11:24;;;;;;;;;;;;;;;20.55;87.94;97863.84;6227322;22;19919;-94
2023/07/18 19:13:54;;;;;;;;;;;;;;;20.42;88.00;97858.81;6257013;22;19923;-95
2023/07/18 19:16:21;;;;;;;;;;;;;;;20.37;88.25;97862.06;6279153;22;19942;-86
2023/07/18 19:18:47;;;;;;;;;;;;;;;20.23;88.29;97853.91;6279806;22;19930;-85
2023/07/18 19:21:40;;;;;;;;;;;;;;;20.15;88.45;97849.63;6283027;22;19903;-88
2023/07/18 19:24:06;;;;;;;;;;;;;;;20.11;88.23;97852.44;6280843;22;19919;-88
2023/07/18 19:29:30;;;;;;;;;;;;;;;19.93;87.01;97844.31;6282710;22;19923;-87
2023/07/18 19:32:08;;;;;;;;;;;;;;;19.85;86.70;97837.22;6286122;22;19965;-94
2023/07/18 19:35:11;;;;;;;;;;;;;;;19.82;87.27;97835.28;6225794;23;19919;-83
2023/07/18 19:37:40;;;;;;;;;;;;;;;19.74;86.81;97835.78;6215461;22;19954;-93
2023/07/18 19:40:07;;;;;;;;;;;;;;;19.67;86.62;97828.31;6220797;23;19949;-89
2023/07/18 19:42:32;;;;;;;;;;;;;;;19.56;86.02;97835.88;6246885;22;19931;-86
2023/07/18 19:45:01;;;;;;;;;;;;;;;19.43;85.74;97830.84;6196529;23;19919;-87
2023/07/18 19:47:27;;;;;;;;;;;;;;;19.34;85.58;97841.63;6243802;23;19962;-88
2023/07/18 19:50:17;;;;;;;;;;;;;;;19.29;86.36;97836.50;6220265;23;19927;-90
2023/07/18 19:52:46;;;;;;;;;;;;;;;19.14;85.47;97844.13;6244229;23;19919;-87
2023/07/18 19:55:12;;;;;;;;;;;;;;;19.05;85.46;97846.56;6245717;23;19919;-87
2023/07/18 19:58:02;;;;;;;;;;;;;;;18.93;84.72;97845.03;6251401;23;20361;-95
2023/07/18 20:03:47;;;;;;;;;;;;;;;18.74;84.41;97840.81;6223893;23;20264;-92
2023/07/18 20:06:13;;;;;;;;;;;;;;;18.72;85.05;97837.66;6234324;22;19930;-94
2023/07/18 20:08:39;;;;;;;;;;;;;;;18.69;85.31;97837.63;6228109;22;20305;-93
2023/07/18 20:11:40;;;;;;;;;;;;;;;18.63;85.38;97840.03;6231776;23;19959;-93
2023/07/18 20:14:11;;;;;;;;;;;;;;;18.60;85.07;97840.03;6226399;23;19950;-93
2023/07/18 20:16:42;;;;;;;;;;;;;;;18.54;85.02;97836.91;6178044;23;19919;-94
2023/07/18 20:19:34;;;;;;;;;;;;;;;18.49;84.75;97829.03;6269053;22;19927;-90
2023/07/18 20:22:03;;;;;;;;;;;;;;;18.41;83.92;97836.59;6264264;22;20341;-91
2023/07/18 20:24:33;;;;;;;;;;;;;;;18.33;83.45;97829.47;6255354;22;20422;-91
2023/07/18 20:27:08;;;;;;;;;;;;;;;18.34;83.97;97831.06;6248590;22;19923;-96
2023/07/18 20:29:38;;;;;;;;;;;;;;;18.28;83.28;97827.94;6286475;22;19919;-93
2023/07/18 20:36:28;;;;;;;;;;;;;;;18.16;83.17;97813.75;6185203;22;19930;-93
2023/07/18 20:47:09;;;;;;;;;;;;;;;17.99;83.16;97802.34;6282067;22;19966;-95
2023/07/18 20:49:45;;;;;;;;;;;;;;;;;;;;;
2023/07/18 20:52:55;;;;;;;;;;;;;;;17.92;82.11;97796.84;6284576;22;19946;-95
2023/07/18 21:03:25;;;;;;;;;;;;;;;17.86;82.04;97792.09;6176177;22;19930;-93
2023/07/18 21:10:18;;;;;;;;;;;;;;;17.69;81.41;97780.66;6131673;23;19920;-90
2023/07/18 21:16:29;;;;;;;;;;;;;;;17.53;81.41;97778.31;6278057;22;20001;-93
2023/07/18 21:19:30;;;;;;;;;;;;;;;17.51;81.07;97774.38;6251537;22;19923;-92
2023/07/18 21:22:22;;;;;;;;;;;;;;;17.45;81.04;97770.41;6203556;22;19962;-94
2023/07/18 21:25:47;;;;;;;;;;;;;;;17.41;80.72;97784.25;6189290;22;20005;-91
2023/07/18 21:28:37;;;;;;;;;;;;;;;17.30;81.37;97787.00;6226101;22;19919;-95
2023/07/18 21:31:03;;;;;;;;;;;;;;;17.19;82.07;97779.94;6228934;22;19954;-91
2023/07/18 21:33:30;;;;;;;;;;;;;;;17.09;82.74;97774.00;6253100;22;20304;-92
2023/07/18 21:36:12;;;;;;;;;;;;;;;17.01;83.54;97775.16;6226795;22;19974;-91
2023/07/18 21:39:13;;;;;;;;;;;;;;;17.01;84.11;97771.63;6226967;22;19926;-92
2023/07/18 21:41:45;;;;;;;;;;;;;;;16.90;83.90;97788.97;6227282;22;20353;-92
2023/07/18 21:44:39;;;;;;;;;;;;;;;16.86;84.87;97777.13;6226548;22;20261;-90
2023/07/18 21:47:03;;;;;;;;;;;;;;;16.80;85.57;97766.88;6135089;23;19932;-92
2023/07/18 21:49:57;;;;;;;;;;;;;;;16.79;84.81;97765.31;6145253;22;19920;-92
2023/07/18 21:52:25;;;;;;;;;;;;;;;16.71;84.87;97758.16;6225574;22;20034;-92
2023/07/18 21:55:08;;;;;;;;;;;;;;;16.64;85.32;97756.16;6240414;22;19973;-89
2023/07/18 21:57:34;;;;;;;;;;;;;;;16.54;85.74;97756.94;6225846;22;19919;-93
2023/07/18 22:00:00;;;;;;;;;;;;;;;16.44;86.20;97751.00;6227076;22;20412;-94
2023/07/18 22:05:38;;;;;;;;;;;;;;;16.38;85.63;97746.25;6252367;22;19923;-92
2023/07/18 22:08:03;;;;;;;;;;;;;;;16.42;85.65;97739.59;6226119;22;19969;-94
2023/07/18 22:10:54;;;;;;;;;;;;;;;16.44;85.62;97739.19;6226364;22;20360;-94
2023/07/18 22:13:24;;;;;;;;;;;;;;;16.45;85.30;97735.25;6191543;23;19924;-92
2023/07/18 22:16:06;;;;;;;;;;;;;;;16.47;85.45;97743.94;6168846;22;19926;-94
2023/07/18 22:18:58;;;;;;;;;;;;;;;16.41;84.82;97728.94;6202011;22;20263;-91
2023/07/18 22:21:24;;;;;;;;;;;;;;;16.39;85.11;97728.53;6228298;22;19954;-94
2023/07/18 22:23:54;;;;;;;;;;;;;;;16.38;84.38;97727.75;6203012;22;19994;-91